sensor_id;sensor_type;location;lat;lon;timestamp;pressure;altitude;pressure_sealevel;temperature
40968;BMP280;57377;45.130;6.038;2023-05-07T00:00:51;62490.00;;;-135.21
40968;BMP280;57377;45.130;6.038;2023-05-07T00:03:17;62490.00;;;-135.21
40968;BMP280;57377;45.130;6.038;2023-05-07T00:05:42;62490.00;;;-135.21
40968;BMP280;57377;45.130;6.038;2023-05-07T00:08:07;62490.00;;;-135.21
40968;BMP280;57377;45.130;6.038;2023-05-07T00:10:33;62490.00;;;-135.21
40968;BMP280;57377;45.130;6.038;2023-05-07T00:12:58;62490.00;;;-135.21
40968;BMP280;57377;45.130;6.038;2023-05-07T00:15:23;62490.00;;;-135.21
40968;BMP280;57377;45.130;6.038;2023-05-07T00:17:48;62490.00;;;-135.21
40968;BMP280;57377;45.130;6.038;2023-05-07T00:20:14;62490.00;;;-135.21
40968;BMP280;57377;45.130;6.038;2023-05-07T00:22:39;62490.00;;;-135.21
40968;BMP280;57377;45.130;6.038;2023-05-07T00:25:05;62490.00;;;-135.21
40968;BMP280;57377;45.130;6.038;2023-05-07T00:27:30;62490.00;;;-135.21
40968;BMP280;57377;45.130;6.038;2023-05-07T00:29:55;62490.00;;;-135.21
40968;BMP280;57377;45.130;6.038;2023-05-07T00:32:21;62490.00;;;-135.21
40968;BMP280;57377;45.130;6.038;2023-05-07T00:34:46;62490.00;;;-135.21
40968;BMP280;57377;45.130;6.038;2023-05-07T00:37:11;62490.00;;;-135.21
40968;BMP280;57377;45.130;6.038;2023-05-07T00:39:37;62490.00;;;-135.21
40968;BMP280;57377;45.130;6.038;2023-05-07T00:42:02;62490.00;;;-135.21
40968;BMP280;57377;45.130;6.038;2023-05-07T00:44:28;62490.00;;;-135.21
40968;BMP280;57377;45.130;6.038;2023-05-07T00:46:53;62490.00;;;-135.21
40968;BMP280;57377;45.130;6.038;2023-05-07T00:49:19;62490.00;;;-135.21
40968;BMP280;57377;45.130;6.038;2023-05-07T00:51:44;62490.00;;;-135.21
40968;BMP280;57377;45.130;6.038;2023-05-07T00:54:10;62490.00;;;-135.21
40968;BMP280;57377;45.130;6.038;2023-05-07T00:56:36;62490.00;;;-135.21
40968;BMP280;57377;45.130;6.038;2023-05-07T00:59:01;62490.00;;;-135.21
40968;BMP280;57377;45.130;6.038;2023-05-07T01:01:26;62490.00;;;-135.21
40968;BMP280;57377;45.130;6.038;2023-05-07T01:03:52;62490.00;;;-135.21
40968;BMP280;57377;45.130;6.038;2023-05-07T01:06:17;62490.00;;;-135.21
40968;BMP280;57377;45.130;6.038;2023-05-07T01:08:43;62490.00;;;-135.21
40968;BMP280;57377;45.130;6.038;2023-05-07T01:11:09;62490.00;;;-135.21
40968;BMP280;57377;45.130;6.038;2023-05-07T01:13:35;62490.00;;;-135.21
40968;BMP280;57377;45.130;6.038;2023-05-07T01:16:00;62490.00;;;-135.21
40968;BMP280;57377;45.130;6.038;2023-05-07T01:18:26;62490.00;;;-135.21
40968;BMP280;57377;45.130;6.038;2023-05-07T01:20:51;62490.00;;;-135.21
40968;BMP280;57377;45.130;6.038;2023-05-07T01:23:17;62490.00;;;-135.21
40968;BMP280;57377;45.130;6.038;2023-05-07T01:25:43;62490.00;;;-135.21
40968;BMP280;57377;45.130;6.038;2023-05-07T01:28:08;62490.00;;;-135.21
40968;BMP280;57377;45.130;6.038;2023-05-07T01:30:33;62490.00;;;-135.21
40968;BMP280;57377;45.130;6.038;2023-05-07T01:33:09;62490.00;;;-135.21
40968;BMP280;57377;45.130;6.038;2023-05-07T01:35:37;62490.00;;;-135.21
40968;BMP280;57377;45.130;6.038;2023-05-07T01:38:03;62490.00;;;-135.21
40968;BMP280;57377;45.130;6.038;2023-05-07T01:40:31;62490.00;;;-135.21
40968;BMP280;57377;45.130;6.038;2023-05-07T01:42:56;62490.00;;;-135.21
40968;BMP280;57377;45.130;6.038;2023-05-07T01:45:21;62490.00;;;-135.21
40968;BMP280;57377;45.130;6.038;2023-05-07T01:47:47;62490.00;;;-135.21
40968;BMP280;57377;45.130;6.038;2023-05-07T01:50:12;62490.00;;;-135.21
40968;BMP280;57377;45.130;6.038;2023-05-07T01:52:39;62490.00;;;-135.21
40968;BMP280;57377;45.130;6.038;2023-05-07T01:55:05;62490.00;;;-135.21
40968;BMP280;57377;45.130;6.038;2023-05-07T01:57:31;62490.00;;;-135.21
40968;BMP280;57377;45.130;6.038;2023-05-07T01:59:56;62490.00;;;-135.21
40968;BMP280;57377;45.130;6.038;2023-05-07T02:02:21;62490.00;;;-135.21
40968;BMP280;57377;45.130;6.038;2023-05-07T02:04:46;62490.00;;;-135.21
40968;BMP280;57377;45.130;6.038;2023-05-07T02:07:12;62490.00;;;-135.21
40968;BMP280;57377;45.130;6.038;2023-05-07T02:09:37;62490.00;;;-135.21
40968;BMP280;57377;45.130;6.038;2023-05-07T02:12:02;62490.00;;;-135.21
40968;BMP280;57377;45.130;6.038;2023-05-07T02:14:28;62490.00;;;-135.21
40968;BMP280;57377;45.130;6.038;2023-05-07T02:16:53;62490.00;;;-135.21
40968;BMP280;57377;45.130;6.038;2023-05-07T02:19:18;62490.00;;;-135.21
40968;BMP280;57377;45.130;6.038;2023-05-07T02:21:46;62490.00;;;-135.21
40968;BMP280;57377;45.130;6.038;2023-05-07T02:24:11;62490.00;;;-135.21
40968;BMP280;57377;45.130;6.038;2023-05-07T02:26:36;62490.00;;;-135.21
40968;BMP280;57377;45.130;6.038;2023-05-07T02:29:01;62490.00;;;-135.21
40968;BMP280;57377;45.130;6.038;2023-05-07T02:31:27;62490.00;;;-135.21
40968;BMP280;57377;45.130;6.038;2023-05-07T02:33:52;62490.00;;;-135.21
40968;BMP280;57377;45.130;6.038;2023-05-07T02:36:17;62490.00;;;-135.21
40968;BMP280;57377;45.130;6.038;2023-05-07T02:38:42;62490.00;;;-135.21
40968;BMP280;57377;45.130;6.038;2023-05-07T02:41:08;62490.00;;;-135.21
40968;BMP280;57377;45.130;6.038;2023-05-07T02:43:33;62490.00;;;-135.21
40968;BMP280;57377;45.130;6.038;2023-05-07T02:46:05;62490.00;;;-135.21
40968;BMP280;57377;45.130;6.038;2023-05-07T02:48:30;62490.00;;;-135.21
40968;BMP280;57377;45.130;6.038;2023-05-07T02:50:56;62490.00;;;-135.21
40968;BMP280;57377;45.130;6.038;2023-05-07T02:53:21;62490.00;;;-135.21
40968;BMP280;57377;45.130;6.038;2023-05-07T02:55:46;62490.00;;;-135.21
40968;BMP280;57377;45.130;6.038;2023-05-07T02:58:12;62490.00;;;-135.21
40968;BMP280;57377;45.130;6.038;2023-05-07T03:00:37;62490.00;;;-135.21
40968;BMP280;57377;45.130;6.038;2023-05-07T03:03:02;62490.00;;;-135.21
40968;BMP280;57377;45.130;6.038;2023-05-07T03:05:27;62490.00;;;-135.21
40968;BMP280;57377;45.130;6.038;2023-05-07T03:07:53;62490.00;;;-135.21
40968;BMP280;57377;45.130;6.038;2023-05-07T03:10:18;62490.00;;;-135.21
40968;BMP280;57377;45.130;6.038;2023-05-07T03:12:43;62490.00;;;-135.21
40968;BMP280;57377;45.130;6.038;2023-05-07T03:15:09;62490.00;;;-135.21
40968;BMP280;57377;45.130;6.038;2023-05-07T03:17:35;62490.00;;;-135.21
40968;BMP280;57377;45.130;6.038;2023-05-07T03:20:00;62490.00;;;-135.21
40968;BMP280;57377;45.130;6.038;2023-05-07T03:22:26;62490.00;;;-135.21
40968;BMP280;57377;45.130;6.038;2023-05-07T03:24:51;62490.00;;;-135.21
40968;BMP280;57377;45.130;6.038;2023-05-07T03:27:16;62490.00;;;-135.21
40968;BMP280;57377;45.130;6.038;2023-05-07T03:29:41;62490.00;;;-135.21
40968;BMP280;57377;45.130;6.038;2023-05-07T03:32:07;62490.00;;;-135.21
40968;BMP280;57377;45.130;6.038;2023-05-07T03:34:32;62490.00;;;-135.21
40968;BMP280;57377;45.130;6.038;2023-05-07T03:36:57;62490.00;;;-135.21
40968;BMP280;57377;45.130;6.038;2023-05-07T03:39:22;62490.00;;;-135.21
40968;BMP280;57377;45.130;6.038;2023-05-07T03:41:48;62490.00;;;-135.21
40968;BMP280;57377;45.130;6.038;2023-05-07T03:44:13;62490.00;;;-135.21
40968;BMP280;57377;45.130;6.038;2023-05-07T03:46:38;62490.00;;;-135.21
40968;BMP280;57377;45.130;6.038;2023-05-07T03:49:03;62490.00;;;-135.21
40968;BMP280;57377;45.130;6.038;2023-05-07T03:51:29;62490.00;;;-135.21
40968;BMP280;57377;45.130;6.038;2023-05-07T03:53:55;62490.00;;;-135.21
40968;BMP280;57377;45.130;6.038;2023-05-07T03:56:22;62490.00;;;-135.21
40968;BMP280;57377;45.130;6.038;2023-05-07T03:58:47;62490.00;;;-135.21
40968;BMP280;57377;45.130;6.038;2023-05-07T04:01:12;62490.00;;;-135.21
40968;BMP280;57377;45.130;6.038;2023-05-07T04:03:38;62490.00;;;-135.21
40968;BMP280;57377;45.130;6.038;2023-05-07T04:06:03;62490.00;;;-135.21
40968;BMP280;57377;45.130;6.038;2023-05-07T04:08:28;62490.00;;;-135.21
40968;BMP280;57377;45.130;6.038;2023-05-07T04:10:54;62490.00;;;-135.21
40968;BMP280;57377;45.130;6.038;2023-05-07T04:13:19;62490.00;;;-135.21
40968;BMP280;57377;45.130;6.038;2023-05-07T04:15:44;62490.00;;;-135.21
40968;BMP280;57377;45.130;6.038;2023-05-07T04:18:11;62490.00;;;-135.21
40968;BMP280;57377;45.130;6.038;2023-05-07T04:20:36;62490.00;;;-135.21
40968;BMP280;57377;45.130;6.038;2023-05-07T04:23:02;62490.00;;;-135.21
40968;BMP280;57377;45.130;6.038;2023-05-07T04:25:27;62490.00;;;-135.21
40968;BMP280;57377;45.130;6.038;2023-05-07T04:27:52;62490.00;;;-135.21
40968;BMP280;57377;45.130;6.038;2023-05-07T04:30:17;62490.00;;;-135.21
40968;BMP280;57377;45.130;6.038;2023-05-07T04:32:43;62490.00;;;-135.21
40968;BMP280;57377;45.130;6.038;2023-05-07T04:35:09;62490.00;;;-135.21
40968;BMP280;57377;45.130;6.038;2023-05-07T04:37:34;62490.00;;;-135.21
40968;BMP280;57377;45.130;6.038;2023-05-07T04:40:00;62490.00;;;-135.21
40968;BMP280;57377;45.130;6.038;2023-05-07T04:42:26;62490.00;;;-135.21
40968;BMP280;57377;45.130;6.038;2023-05-07T04:44:52;62490.00;;;-135.21
40968;BMP280;57377;45.130;6.038;2023-05-07T04:47:17;62490.00;;;-135.21
40968;BMP280;57377;45.130;6.038;2023-05-07T04:49:43;62490.00;;;-135.21
40968;BMP280;57377;45.130;6.038;2023-05-07T04:52:08;62490.00;;;-135.21
40968;BMP280;57377;45.130;6.038;2023-05-07T04:54:33;62490.00;;;-135.21
40968;BMP280;57377;45.130;6.038;2023-05-07T04:56:58;62490.00;;;-135.21
40968;BMP280;57377;45.130;6.038;2023-05-07T04:59:24;62490.00;;;-135.21
40968;BMP280;57377;45.130;6.038;2023-05-07T05:01:49;62490.00;;;-135.21
40968;BMP280;57377;45.130;6.038;2023-05-07T05:04:14;62490.00;;;-135.21
40968;BMP280;57377;45.130;6.038;2023-05-07T05:06:39;62490.00;;;-135.21
40968;BMP280;57377;45.130;6.038;2023-05-07T05:09:05;62490.00;;;-135.21
40968;BMP280;57377;45.130;6.038;2023-05-07T05:11:31;62490.00;;;-135.21
40968;BMP280;57377;45.130;6.038;2023-05-07T05:13:56;62490.00;;;-135.21
40968;BMP280;57377;45.130;6.038;2023-05-07T05:16:21;62490.00;;;-135.21
40968;BMP280;57377;45.130;6.038;2023-05-07T05:18:47;62490.00;;;-135.21
40968;BMP280;57377;45.130;6.038;2023-05-07T05:21:12;62490.00;;;-135.21
40968;BMP280;57377;45.130;6.038;2023-05-07T05:23:37;62490.00;;;-135.21
40968;BMP280;57377;45.130;6.038;2023-05-07T05:26:03;62490.00;;;-135.21
40968;BMP280;57377;45.130;6.038;2023-05-07T05:28:28;62490.00;;;-135.21
40968;BMP280;57377;45.130;6.038;2023-05-07T05:30:53;62490.00;;;-135.21
40968;BMP280;57377;45.130;6.038;2023-05-07T05:33:19;62490.00;;;-135.21
40968;BMP280;57377;45.130;6.038;2023-05-07T05:35:44;62490.00;;;-135.21
40968;BMP280;57377;45.130;6.038;2023-05-07T05:38:09;62490.00;;;-135.21
40968;BMP280;57377;45.130;6.038;2023-05-07T05:40:35;62490.00;;;-135.21
40968;BMP280;57377;45.130;6.038;2023-05-07T05:43:00;62490.00;;;-135.21
40968;BMP280;57377;45.130;6.038;2023-05-07T05:45:25;62490.00;;;-135.21
40968;BMP280;57377;45.130;6.038;2023-05-07T05:47:51;62490.00;;;-135.21
40968;BMP280;57377;45.130;6.038;2023-05-07T05:50:16;62490.00;;;-135.21
40968;BMP280;57377;45.130;6.038;2023-05-07T05:52:41;62490.00;;;-135.21
40968;BMP280;57377;45.130;6.038;2023-05-07T05:55:07;62490.00;;;-135.21
40968;BMP280;57377;45.130;6.038;2023-05-07T05:57:32;62490.00;;;-135.21
40968;BMP280;57377;45.130;6.038;2023-05-07T05:59:58;62490.00;;;-135.21
40968;BMP280;57377;45.130;6.038;2023-05-07T06:02:23;62490.00;;;-135.21
40968;BMP280;57377;45.130;6.038;2023-05-07T06:04:48;62490.00;;;-135.21
40968;BMP280;57377;45.130;6.038;2023-05-07T06:07:14;62490.00;;;-135.21
40968;BMP280;57377;45.130;6.038;2023-05-07T06:09:39;62490.00;;;-135.21
40968;BMP280;57377;45.130;6.038;2023-05-07T06:12:04;62490.00;;;-135.21
40968;BMP280;57377;45.130;6.038;2023-05-07T06:14:29;62490.00;;;-135.21
40968;BMP280;57377;45.130;6.038;2023-05-07T06:16:55;62490.00;;;-135.21
40968;BMP280;57377;45.130;6.038;2023-05-07T06:19:20;62490.00;;;-135.21
40968;BMP280;57377;45.130;6.038;2023-05-07T06:21:48;62490.00;;;-135.21
40968;BMP280;57377;45.130;6.038;2023-05-07T06:24:14;62490.00;;;-135.21
40968;BMP280;57377;45.130;6.038;2023-05-07T06:26:39;62490.00;;;-135.21
40968;BMP280;57377;45.130;6.038;2023-05-07T06:31:38;62490.00;;;-135.21
40968;BMP280;57377;45.130;6.038;2023-05-07T06:34:03;62490.00;;;-135.21
40968;BMP280;57377;45.130;6.038;2023-05-07T06:36:28;62490.00;;;-135.21
40968;BMP280;57377;45.130;6.038;2023-05-07T06:38:55;62490.00;;;-135.21
40968;BMP280;57377;45.130;6.038;2023-05-07T06:41:20;62490.00;;;-135.21
40968;BMP280;57377;45.130;6.038;2023-05-07T06:43:46;62490.00;;;-135.21
40968;BMP280;57377;45.130;6.038;2023-05-07T06:46:11;62490.00;;;-135.21
40968;BMP280;57377;45.130;6.038;2023-05-07T06:48:37;62490.00;;;-135.21
40968;BMP280;57377;45.130;6.038;2023-05-07T06:51:02;62490.00;;;-135.21
40968;BMP280;57377;45.130;6.038;2023-05-07T06:53:27;62490.00;;;-135.21
40968;BMP280;57377;45.130;6.038;2023-05-07T06:55:54;62490.00;;;-135.21
40968;BMP280;57377;45.130;6.038;2023-05-07T06:58:20;62490.00;;;-135.21
40968;BMP280;57377;45.130;6.038;2023-05-07T07:00:45;62490.00;;;-135.21
40968;BMP280;57377;45.130;6.038;2023-05-07T07:03:11;62490.00;;;-135.21
40968;BMP280;57377;45.130;6.038;2023-05-07T07:05:36;62490.00;;;-135.21
40968;BMP280;57377;45.130;6.038;2023-05-07T07:08:04;62490.00;;;-135.21
40968;BMP280;57377;45.130;6.038;2023-05-07T07:10:29;62490.00;;;-135.21
40968;BMP280;57377;45.130;6.038;2023-05-07T07:12:59;62490.00;;;-135.21
40968;BMP280;57377;45.130;6.038;2023-05-07T07:15:38;62490.00;;;-135.21
40968;BMP280;57377;45.130;6.038;2023-05-07T07:18:04;62490.00;;;-135.21
40968;BMP280;57377;45.130;6.038;2023-05-07T07:20:29;62490.00;;;-135.21
40968;BMP280;57377;45.130;6.038;2023-05-07T07:22:54;62490.00;;;-135.21
40968;BMP280;57377;45.130;6.038;2023-05-07T07:25:20;62490.00;;;-135.21
40968;BMP280;57377;45.130;6.038;2023-05-07T07:27:45;62490.00;;;-135.21
40968;BMP280;57377;45.130;6.038;2023-05-07T07:30:10;62490.00;;;-135.21
40968;BMP280;57377;45.130;6.038;2023-05-07T07:32:37;62490.00;;;-135.21
40968;BMP280;57377;45.130;6.038;2023-05-07T07:35:02;62490.00;;;-135.21
40968;BMP280;57377;45.130;6.038;2023-05-07T07:37:27;62490.00;;;-135.21
40968;BMP280;57377;45.130;6.038;2023-05-07T07:39:53;62490.00;;;-135.21
40968;BMP280;57377;45.130;6.038;2023-05-07T07:42:18;62490.00;;;-135.21
40968;BMP280;57377;45.130;6.038;2023-05-07T07:44:43;62490.00;;;-135.21
40968;BMP280;57377;45.130;6.038;2023-05-07T07:47:09;62490.00;;;-135.21
40968;BMP280;57377;45.130;6.038;2023-05-07T07:49:39;62490.00;;;-135.21
40968;BMP280;57377;45.130;6.038;2023-05-07T07:52:04;62490.00;;;-135.21
40968;BMP280;57377;45.130;6.038;2023-05-07T07:54:29;62490.00;;;-135.21
40968;BMP280;57377;45.130;6.038;2023-05-07T07:56:55;62490.00;;;-135.21
40968;BMP280;57377;45.130;6.038;2023-05-07T07:59:20;62490.00;;;-135.21
40968;BMP280;57377;45.130;6.038;2023-05-07T08:01:45;62490.00;;;-135.21
40968;BMP280;57377;45.130;6.038;2023-05-07T08:04:13;62490.00;;;-135.21
40968;BMP280;57377;45.130;6.038;2023-05-07T08:06:38;62490.00;;;-135.21
40968;BMP280;57377;45.130;6.038;2023-05-07T08:09:03;62490.00;;;-135.21
40968;BMP280;57377;45.130;6.038;2023-05-07T08:11:29;62490.00;;;-135.21
40968;BMP280;57377;45.130;6.038;2023-05-07T08:13:54;62490.00;;;-135.21
40968;BMP280;57377;45.130;6.038;2023-05-07T08:16:20;62490.00;;;-135.21
40968;BMP280;57377;45.130;6.038;2023-05-07T08:18:45;62490.00;;;-135.21
40968;BMP280;57377;45.130;6.038;2023-05-07T08:21:10;62490.00;;;-135.21
40968;BMP280;57377;45.130;6.038;2023-05-07T08:23:35;62490.00;;;-135.21
40968;BMP280;57377;45.130;6.038;2023-05-07T08:26:01;62490.00;;;-135.21
40968;BMP280;57377;45.130;6.038;2023-05-07T08:28:26;62490.00;;;-135.21
40968;BMP280;57377;45.130;6.038;2023-05-07T08:30:51;62490.00;;;-135.21
40968;BMP280;57377;45.130;6.038;2023-05-07T08:33:17;62490.00;;;-135.21
40968;BMP280;57377;45.130;6.038;2023-05-07T08:35:42;62490.00;;;-135.21
40968;BMP280;57377;45.130;6.038;2023-05-07T08:38:07;62490.00;;;-135.21
40968;BMP280;57377;45.130;6.038;2023-05-07T08:40:35;62490.00;;;-135.21
40968;BMP280;57377;45.130;6.038;2023-05-07T08:43:01;62490.00;;;-135.21
40968;BMP280;57377;45.130;6.038;2023-05-07T08:45:27;62490.00;;;-135.21
40968;BMP280;57377;45.130;6.038;2023-05-07T08:47:54;62490.00;;;-135.21
40968;BMP280;57377;45.130;6.038;2023-05-07T08:50:22;62490.00;;;-135.21
40968;BMP280;57377;45.130;6.038;2023-05-07T08:52:47;62490.00;;;-135.21
40968;BMP280;57377;45.130;6.038;2023-05-07T08:55:13;62490.00;;;-135.21
40968;BMP280;57377;45.130;6.038;2023-05-07T08:57:40;62490.00;;;-135.21
40968;BMP280;57377;45.130;6.038;2023-05-07T09:00:06;62490.00;;;-135.21
40968;BMP280;57377;45.130;6.038;2023-05-07T09:02:32;62490.00;;;-135.21
40968;BMP280;57377;45.130;6.038;2023-05-07T09:04:57;62490.00;;;-135.21
40968;BMP280;57377;45.130;6.038;2023-05-07T09:07:23;62490.00;;;-135.21
40968;BMP280;57377;45.130;6.038;2023-05-07T09:09:48;62490.00;;;-135.21
40968;BMP280;57377;45.130;6.038;2023-05-07T09:12:14;62490.00;;;-135.21
40968;BMP280;57377;45.130;6.038;2023-05-07T09:14:39;62490.00;;;-135.21
40968;BMP280;57377;45.130;6.038;2023-05-07T09:17:04;62490.00;;;-135.21
40968;BMP280;57377;45.130;6.038;2023-05-07T09:19:30;62490.00;;;-135.21
40968;BMP280;57377;45.130;6.038;2023-05-07T09:22:02;62490.00;;;-135.21
40968;BMP280;57377;45.130;6.038;2023-05-07T09:24:28;62490.00;;;-135.21
40968;BMP280;57377;45.130;6.038;2023-05-07T09:26:58;62490.00;;;-135.21
40968;BMP280;57377;45.130;6.038;2023-05-07T09:29:25;62490.00;;;-135.21
40968;BMP280;57377;45.130;6.038;2023-05-07T09:31:50;62490.00;;;-135.21
40968;BMP280;57377;45.130;6.038;2023-05-07T09:34:15;62490.00;;;-135.21
40968;BMP280;57377;45.130;6.038;2023-05-07T09:36:41;62490.00;;;-135.21
40968;BMP280;57377;45.130;6.038;2023-05-07T09:39:06;62490.00;;;-135.21
40968;BMP280;57377;45.130;6.038;2023-05-07T09:41:32;62490.00;;;-135.21
40968;BMP280;57377;45.130;6.038;2023-05-07T09:43:57;62490.00;;;-135.21
40968;BMP280;57377;45.130;6.038;2023-05-07T09:46:27;62490.00;;;-135.21
40968;BMP280;57377;45.130;6.038;2023-05-07T09:48:55;62490.00;;;-135.21
40968;BMP280;57377;45.130;6.038;2023-05-07T09:51:24;62490.00;;;-135.21
40968;BMP280;57377;45.130;6.038;2023-05-07T15:17:21;92748.09;;;14.67
40968;BMP280;57377;45.130;6.038;2023-05-07T15:19:47;92749.66;;;14.76
40968;BMP280;57377;45.130;6.038;2023-05-07T15:22:12;92745.88;;;15.16
40968;BMP280;57377;45.130;6.038;2023-05-07T15:24:37;92747.25;;;15.30
40968;BMP280;57377;45.130;6.038;2023-05-07T15:27:03;92741.69;;;15.57
40968;BMP280;57377;45.130;6.038;2023-05-07T15:29:28;92748.44;;;15.74
40968;BMP280;57377;45.130;6.038;2023-05-07T15:31:54;92739.78;;;15.82
40968;BMP280;57377;45.130;6.038;2023-05-07T15:34:21;92740.34;;;15.96
40968;BMP280;57377;45.130;6.038;2023-05-07T15:36:46;92735.75;;;15.93
40968;BMP280;57377;45.130;6.038;2023-05-07T15:39:12;92741.25;;;16.17
40968;BMP280;57377;45.130;6.038;2023-05-07T15:41:37;92745.28;;;16.14
40968;BMP280;57377;45.130;6.038;2023-05-07T15:44:03;92732.16;;;16.14
40968;BMP280;57377;45.130;6.038;2023-05-07T15:46:29;92732.56;;;16.25
40968;BMP280;57377;45.130;6.038;2023-05-07T15:48:54;92729.00;;;16.29
40968;BMP280;57377;45.130;6.038;2023-05-07T15:51:21;92741.56;;;16.15
40968;BMP280;57377;45.130;6.038;2023-05-07T15:53:47;92734.09;;;16.34
40968;BMP280;57377;45.130;6.038;2023-05-07T15:56:13;92734.69;;;16.39
40968;BMP280;57377;45.130;6.038;2023-05-07T15:58:38;92738.94;;;16.24
40968;BMP280;57377;45.130;6.038;2023-05-07T16:01:04;92741.03;;;16.38
40968;BMP280;57377;45.130;6.038;2023-05-07T16:03:30;92735.81;;;16.30
40968;BMP280;57377;45.130;6.038;2023-05-07T16:05:56;92736.50;;;16.47
40968;BMP280;57377;45.130;6.038;2023-05-07T16:08:27;92733.47;;;16.66
40968;BMP280;57377;45.130;6.038;2023-05-07T16:10:52;92746.38;;;16.50
40968;BMP280;57377;45.130;6.038;2023-05-07T16:13:18;92747.38;;;16.38
40968;BMP280;57377;45.130;6.038;2023-05-07T16:15:47;92749.19;;;16.45
40968;BMP280;57377;45.130;6.038;2023-05-07T16:18:13;92747.63;;;16.16
40968;BMP280;57377;45.130;6.038;2023-05-07T16:20:40;92746.66;;;16.20
40968;BMP280;57377;45.130;6.038;2023-05-07T16:23:07;92746.81;;;16.24
40968;BMP280;57377;45.130;6.038;2023-05-07T16:25:32;92748.97;;;16.13
40968;BMP280;57377;45.130;6.038;2023-05-07T16:27:58;92749.72;;;16.31
40968;BMP280;57377;45.130;6.038;2023-05-07T16:30:26;92747.97;;;16.35
40968;BMP280;57377;45.130;6.038;2023-05-07T16:32:51;92747.84;;;16.31
40968;BMP280;57377;45.130;6.038;2023-05-07T16:35:16;92747.22;;;16.34
40968;BMP280;57377;45.130;6.038;2023-05-07T16:37:42;92743.72;;;16.22
40968;BMP280;57377;45.130;6.038;2023-05-07T16:40:10;92745.69;;;16.33
40968;BMP280;57377;45.130;6.038;2023-05-07T16:42:36;92739.81;;;16.36
40968;BMP280;57377;45.130;6.038;2023-05-07T16:45:02;92740.91;;;16.27
40968;BMP280;57377;45.130;6.038;2023-05-07T16:47:31;92728.31;;;16.49
40968;BMP280;57377;45.130;6.038;2023-05-07T16:49:56;92739.84;;;16.56
40968;BMP280;57377;45.130;6.038;2023-05-07T16:52:24;92737.47;;;16.71
40968;BMP280;57377;45.130;6.038;2023-05-07T16:54:49;92738.63;;;16.54
40968;BMP280;57377;45.130;6.038;2023-05-07T16:57:14;92747.97;;;16.35
40968;BMP280;57377;45.130;6.038;2023-05-07T16:59:40;92754.28;;;16.42
40968;BMP280;57377;45.130;6.038;2023-05-07T17:02:05;92748.06;;;16.55
40968;BMP280;57377;45.130;6.038;2023-05-07T17:04:30;92756.84;;;16.59
40968;BMP280;57377;45.130;6.038;2023-05-07T17:06:57;92753.81;;;16.48
40968;BMP280;57377;45.130;6.038;2023-05-07T17:09:22;92752.28;;;16.47
40968;BMP280;57377;45.130;6.038;2023-05-07T17:11:48;92752.63;;;16.66
40968;BMP280;57377;45.130;6.038;2023-05-07T17:14:13;92756.16;;;16.70
40968;BMP280;57377;45.130;6.038;2023-05-07T17:16:38;92751.72;;;16.62
40968;BMP280;57377;45.130;6.038;2023-05-07T17:19:04;92751.06;;;16.73
40968;BMP280;57377;45.130;6.038;2023-05-07T17:21:29;92744.84;;;16.49
40968;BMP280;57377;45.130;6.038;2023-05-07T17:23:55;92753.25;;;16.63
40968;BMP280;57377;45.130;6.038;2023-05-07T17:26:20;92758.97;;;16.65
40968;BMP280;57377;45.130;6.038;2023-05-07T17:28:45;92760.59;;;16.49
40968;BMP280;57377;45.130;6.038;2023-05-07T17:31:11;92763.94;;;16.58
40968;BMP280;57377;45.130;6.038;2023-05-07T17:33:36;92761.78;;;16.60
40968;BMP280;57377;45.130;6.038;2023-05-07T17:36:02;92760.16;;;16.47
40968;BMP280;57377;45.130;6.038;2023-05-07T17:38:28;92764.72;;;16.30
40968;BMP280;57377;45.130;6.038;2023-05-07T17:40:54;92766.47;;;16.46
40968;BMP280;57377;45.130;6.038;2023-05-07T17:43:19;92773.34;;;16.31
40968;BMP280;57377;45.130;6.038;2023-05-07T17:45:46;92770.47;;;16.52
40968;BMP280;57377;45.130;6.038;2023-05-07T17:48:12;92765.59;;;16.42
40968;BMP280;57377;45.130;6.038;2023-05-07T17:50:37;92771.25;;;16.53
40968;BMP280;57377;45.130;6.038;2023-05-07T17:53:03;92783.16;;;16.50
40968;BMP280;57377;45.130;6.038;2023-05-07T17:55:30;92776.22;;;16.46
40968;BMP280;57377;45.130;6.038;2023-05-07T17:57:58;92765.41;;;16.47
40968;BMP280;57377;45.130;6.038;2023-05-07T18:00:23;92775.44;;;16.45
40968;BMP280;57377;45.130;6.038;2023-05-07T18:02:50;92768.22;;;16.42
40968;BMP280;57377;45.130;6.038;2023-05-07T18:05:16;92769.28;;;16.41
40968;BMP280;57377;45.130;6.038;2023-05-07T18:07:41;92776.84;;;16.43
40968;BMP280;57377;45.130;6.038;2023-05-07T18:10:07;92767.75;;;16.40
40968;BMP280;57377;45.130;6.038;2023-05-07T18:12:32;92765.88;;;16.41
40968;BMP280;57377;45.130;6.038;2023-05-07T18:14:58;92768.03;;;16.39
40968;BMP280;57377;45.130;6.038;2023-05-07T18:17:23;92760.75;;;16.44
40968;BMP280;57377;45.130;6.038;2023-05-07T18:19:50;92766.53;;;16.38
40968;BMP280;57377;45.130;6.038;2023-05-07T18:22:15;92763.00;;;16.26
40968;BMP280;57377;45.130;6.038;2023-05-07T18:24:41;92765.47;;;16.22
40968;BMP280;57377;45.130;6.038;2023-05-07T18:27:06;92769.31;;;16.33
40968;BMP280;57377;45.130;6.038;2023-05-07T18:29:31;92774.09;;;16.31
40968;BMP280;57377;45.130;6.038;2023-05-07T18:31:57;92777.31;;;16.37
40968;BMP280;57377;45.130;6.038;2023-05-07T18:34:22;92788.81;;;16.24
40968;BMP280;57377;45.130;6.038;2023-05-07T18:36:47;92787.28;;;16.14
40968;BMP280;57377;45.130;6.038;2023-05-07T18:39:13;92793.13;;;16.03
40968;BMP280;57377;45.130;6.038;2023-05-07T18:41:38;92805.19;;;16.04
40968;BMP280;57377;45.130;6.038;2023-05-07T18:44:04;92808.88;;;16.03
40968;BMP280;57377;45.130;6.038;2023-05-07T18:46:30;92809.06;;;16.15
40968;BMP280;57377;45.130;6.038;2023-05-07T18:48:56;92801.47;;;16.22
40968;BMP280;57377;45.130;6.038;2023-05-07T18:51:21;92800.53;;;16.18
40968;BMP280;57377;45.130;6.038;2023-05-07T18:53:46;92803.03;;;15.89
40968;BMP280;57377;45.130;6.038;2023-05-07T18:56:12;92807.97;;;15.91
40968;BMP280;57377;45.130;6.038;2023-05-07T18:58:40;92812.31;;;15.78
40968;BMP280;57377;45.130;6.038;2023-05-07T19:01:06;92812.94;;;15.75
40968;BMP280;57377;45.130;6.038;2023-05-07T19:03:33;92817.56;;;15.95
40968;BMP280;57377;45.130;6.038;2023-05-07T19:05:59;92814.16;;;15.86
40968;BMP280;57377;45.130;6.038;2023-05-07T19:08:25;92826.34;;;15.99